Aviation Digital Data Service (ADDS)

Output produced by METARs form (1208 UTC 24 March 2017)
found at http://www.aviationweather.gov/adds/metars/
 
DGAA 241100Z 25004KT 200V280 9999 SCT036 32/24 Q1013 NOSIG
TAF DGAA 241100Z 2412/2518 20010KT 9999 SCT025 
     TEMPO 2414/2418 FEW030CB 
     BECMG 2419/2421 BKN014 
     BECMG 2500/2502 27008KT CAVOK 
     FM251200 19012KT 9999 SCT022
       
TAF DGSI 240500Z 2406/2506 23010KT 9999 BKN012 
     TEMPO 2407/2411 14010KT 
     BECMG 2412/2414 SCT016 
     TEMPO 2417/2421 FEW030CB 
     TEMPO 2423/2503 00000KT BKN010